Saturday, August 18, 2018, 1:59 PM GMT
Back to Local

CWQH, Lennoxville

Location: , , Canada Lat: 45.367
Local Time: 1:59 PM GMT (13:59 GMT) Lon: -71.817
Time Zone: GMT Elev: 593 ft

Show me the last for .
Show Coded

Time T Td Feel RH Dir Speed Gust Alt SLP Vis Weather Sky Remarks
2018-08-18 13:00 63 62 - 95 340° 7 - - - 0 None
2018-08-18 12:00 63 62 - 97 320° 3 - - - 0 None
2018-08-18 11:00 62 61 - 97 320° 7 - - - 0 None
2018-08-18 10:00 62 60 - 91 310° 8 - - - 0 None
2018-08-18 09:00 62 63 - 103 300° 7 - - - 0 None
2018-08-18 08:00 65 64 - 96 330° 7 - - - 0 None
2018-08-18 07:00 66 65 - 96 300° 5 - - - 0 1-hr Precip Total: 0.04"
2018-08-18 06:00 68 66 - 95 310° 7 - - - 0 None
2018-08-18 05:00 70 69 - 96 190° 6 - - - 0 1-hr Precip Total: 0.05"
2018-08-18 04:00 69 68 - 96 310° 2 - - - 0 None
2018-08-18 03:00 70 68 - 94 190° 2 - - - 0 None
2018-08-18 02:00 69 68 - 94 190° 1 - - - 0 None
2018-08-18 01:00 69 68 - 95 180° 3 - - - 0 1-hr Precip Total: 0.05"
2018-08-18 00:00 69 68 - 95 - Calm - - - 0 None
2018-08-17 23:00 69 68 - 95 170° 2 - - - 0 None
2018-08-17 22:00 69 68 - 94 190° 2 - - - 0 1-hr Precip Total: 0.13"
2018-08-17 21:00 72 68 76 89 150° 5 - - - 0 None
2018-08-17 20:00 72 69 76 89 100° 1 - - - 0 None
2018-08-17 19:00 71 67 76 87 190° 2 - - - 0 1-hr Precip Total: 0.05"
2018-08-17 18:00 76 64 79 66 190° 5 - - - 0 None
2018-08-17 17:00 77 64 80 64 120° 1 - - - 0 None
2018-08-17 16:00 73 63 77 71 180° 3 - - - 0 None
2018-08-17 15:00 71 62 76 73 240° 1 - - - 0 None
2018-08-17 14:00 64 58 - 81 340° 2 - - - 0 None

Support USWX by starting your Amazon purchase here.